sensor_id;sensor_type;location;lat;lon;timestamp;temperature;humidity
14901;DHT22;7542;49.078;9.194;2023-05-31T00:00:07;24.40;37.70
14901;DHT22;7542;49.078;9.194;2023-05-31T00:01:09;24.30;37.80
14901;DHT22;7542;49.078;9.194;2023-05-31T00:02:11;24.30;37.80
14901;DHT22;7542;49.078;9.194;2023-05-31T00:03:13;24.30;37.80
14901;DHT22;7542;49.078;9.194;2023-05-31T00:04:17;23.40;37.40
14901;DHT22;7542;49.078;9.194;2023-05-31T00:05:19;24.30;37.90
14901;DHT22;7542;49.078;9.194;2023-05-31T00:06:21;24.30;37.90
14901;DHT22;7542;49.078;9.194;2023-05-31T00:07:23;24.30;37.90
14901;DHT22;7542;49.078;9.194;2023-05-31T00:08:24;24.30;37.90
14901;DHT22;7542;49.078;9.194;2023-05-31T00:09:26;24.30;37.90
14901;DHT22;7542;49.078;9.194;2023-05-31T00:10:28;24.40;37.80
14901;DHT22;7542;49.078;9.194;2023-05-31T00:11:30;24.20;37.80
14901;DHT22;7542;49.078;9.194;2023-05-31T00:12:32;24.40;37.90
14901;DHT22;7542;49.078;9.194;2023-05-31T00:13:34;24.40;37.90
14901;DHT22;7542;49.078;9.194;2023-05-31T00:14:36;24.50;37.90
14901;DHT22;7542;49.078;9.194;2023-05-31T00:15:38;24.30;37.80
14901;DHT22;7542;49.078;9.194;2023-05-31T00:16:40;24.30;37.80
14901;DHT22;7542;49.078;9.194;2023-05-31T00:18:02;24.30;37.80
14901;DHT22;7542;49.078;9.194;2023-05-31T00:19:04;24.20;37.80
14901;DHT22;7542;49.078;9.194;2023-05-31T00:20:06;24.30;37.80
14901;DHT22;7542;49.078;9.194;2023-05-31T00:21:08;24.30;37.90
14901;DHT22;7542;49.078;9.194;2023-05-31T00:22:10;24.30;37.90
14901;DHT22;7542;49.078;9.194;2023-05-31T00:23:12;24.30;37.80
14901;DHT22;7542;49.078;9.194;2023-05-31T00:24:16;24.30;37.80
14901;DHT22;7542;49.078;9.194;2023-05-31T00:25:18;24.30;37.90
14901;DHT22;7542;49.078;9.194;2023-05-31T00:26:20;24.30;37.80
14901;DHT22;7542;49.078;9.194;2023-05-31T00:27:23;24.30;37.80
14901;DHT22;7542;49.078;9.194;2023-05-31T00:28:25;24.40;37.80
14901;DHT22;7542;49.078;9.194;2023-05-31T00:29:29;24.40;37.80
14901;DHT22;7542;49.078;9.194;2023-05-31T00:30:31;24.30;37.90
14901;DHT22;7542;49.078;9.194;2023-05-31T00:31:33;24.40;37.80
14901;DHT22;7542;49.078;9.194;2023-05-31T00:32:35;24.40;37.90
14901;DHT22;7542;49.078;9.194;2023-05-31T00:33:37;24.30;37.80
14901;DHT22;7542;49.078;9.194;2023-05-31T00:34:39;24.40;37.80
14901;DHT22;7542;49.078;9.194;2023-05-31T00:35:41;24.30;37.70
14901;DHT22;7542;49.078;9.194;2023-05-31T00:36:42;24.30;37.70
14901;DHT22;7542;49.078;9.194;2023-05-31T00:37:44;24.30;37.80
14901;DHT22;7542;49.078;9.194;2023-05-31T00:38:46;24.40;37.80
14901;DHT22;7542;49.078;9.194;2023-05-31T00:39:49;24.30;37.70
14901;DHT22;7542;49.078;9.194;2023-05-31T00:40:51;24.30;37.70
14901;DHT22;7542;49.078;9.194;2023-05-31T00:41:52;24.40;37.70
14901;DHT22;7542;49.078;9.194;2023-05-31T00:42:54;24.30;37.70
14901;DHT22;7542;49.078;9.194;2023-05-31T00:43:56;24.50;37.80
14901;DHT22;7542;49.078;9.194;2023-05-31T00:44:58;24.40;38.00
14901;DHT22;7542;49.078;9.194;2023-05-31T00:46:01;24.40;38.10
14901;DHT22;7542;49.078;9.194;2023-05-31T00:47:04;24.50;38.20
14901;DHT22;7542;49.078;9.194;2023-05-31T00:48:06;24.50;38.20
14901;DHT22;7542;49.078;9.194;2023-05-31T00:49:09;24.50;38.20
14901;DHT22;7542;49.078;9.194;2023-05-31T00:50:11;24.60;38.20
14901;DHT22;7542;49.078;9.194;2023-05-31T00:51:13;24.60;38.20
14901;DHT22;7542;49.078;9.194;2023-05-31T00:52:15;24.70;38.30
14901;DHT22;7542;49.078;9.194;2023-05-31T00:53:18;24.70;38.30
14901;DHT22;7542;49.078;9.194;2023-05-31T00:54:21;24.70;38.40
14901;DHT22;7542;49.078;9.194;2023-05-31T00:55:24;24.70;38.40
14901;DHT22;7542;49.078;9.194;2023-05-31T00:56:27;24.70;38.30
14901;DHT22;7542;49.078;9.194;2023-05-31T00:57:30;24.80;38.30
14901;DHT22;7542;49.078;9.194;2023-05-31T00:58:32;24.80;38.40
14901;DHT22;7542;49.078;9.194;2023-05-31T00:59:37;25.10;38.40
14901;DHT22;7542;49.078;9.194;2023-05-31T01:00:40;24.80;38.30
14901;DHT22;7542;49.078;9.194;2023-05-31T01:01:42;24.80;38.40
14901;DHT22;7542;49.078;9.194;2023-05-31T01:02:44;24.80;38.40
14901;DHT22;7542;49.078;9.194;2023-05-31T01:03:47;24.80;38.40
14901;DHT22;7542;49.078;9.194;2023-05-31T01:04:49;24.90;38.50
14901;DHT22;7542;49.078;9.194;2023-05-31T01:05:52;24.90;38.50
14901;DHT22;7542;49.078;9.194;2023-05-31T01:06:54;24.90;38.60
14901;DHT22;7542;49.078;9.194;2023-05-31T01:07:57;24.90;38.60
14901;DHT22;7542;49.078;9.194;2023-05-31T01:09:04;27.70;39.60
14901;DHT22;7542;49.078;9.194;2023-05-31T01:10:07;24.90;38.60
14901;DHT22;7542;49.078;9.194;2023-05-31T01:12:58;24.90;38.60
14901;DHT22;7542;49.078;9.194;2023-05-31T01:15:32;24.90;38.70
14901;DHT22;7542;49.078;9.194;2023-05-31T01:16:47;25.00;38.80
14901;DHT22;7542;49.078;9.194;2023-05-31T01:19:36;24.90;38.80
14901;DHT22;7542;49.078;9.194;2023-05-31T01:20:51;24.90;38.80
14901;DHT22;7542;49.078;9.194;2023-05-31T01:25:14;24.90;38.90
14901;DHT22;7542;49.078;9.194;2023-05-31T01:26:47;24.90;38.90
14901;DHT22;7542;49.078;9.194;2023-05-31T01:27:52;24.90;38.90
14901;DHT22;7542;49.078;9.194;2023-05-31T01:28:59;25.00;38.90
14901;DHT22;7542;49.078;9.194;2023-05-31T01:30:05;25.00;39.00
14901;DHT22;7542;49.078;9.194;2023-05-31T01:31:14;25.00;39.00
14901;DHT22;7542;49.078;9.194;2023-05-31T01:32:19;24.90;39.00
14901;DHT22;7542;49.078;9.194;2023-05-31T01:33:23;26.20;39.40
14901;DHT22;7542;49.078;9.194;2023-05-31T01:34:26;25.00;39.00
14901;DHT22;7542;49.078;9.194;2023-05-31T01:35:28;25.00;39.00
14901;DHT22;7542;49.078;9.194;2023-05-31T01:36:30;24.90;39.10
14901;DHT22;7542;49.078;9.194;2023-05-31T01:37:32;25.00;39.00
14901;DHT22;7542;49.078;9.194;2023-05-31T01:38:34;25.00;39.10
14901;DHT22;7542;49.078;9.194;2023-05-31T01:39:36;25.00;39.00
14901;DHT22;7542;49.078;9.194;2023-05-31T01:40:39;25.00;39.10
14901;DHT22;7542;49.078;9.194;2023-05-31T01:41:43;25.00;39.10
14901;DHT22;7542;49.078;9.194;2023-05-31T01:42:49;25.00;39.10
14901;DHT22;7542;49.078;9.194;2023-05-31T01:43:52;25.00;39.10
14901;DHT22;7542;49.078;9.194;2023-05-31T01:44:56;25.00;39.20
14901;DHT22;7542;49.078;9.194;2023-05-31T01:46:00;25.00;39.20
14901;DHT22;7542;49.078;9.194;2023-05-31T01:47:03;25.00;39.20
14901;DHT22;7542;49.078;9.194;2023-05-31T01:48:08;24.90;39.10
14901;DHT22;7542;49.078;9.194;2023-05-31T01:49:11;25.00;39.20
14901;DHT22;7542;49.078;9.194;2023-05-31T01:50:14;25.00;39.20
14901;DHT22;7542;49.078;9.194;2023-05-31T01:51:17;25.00;39.20
14901;DHT22;7542;49.078;9.194;2023-05-31T01:52:21;25.00;39.20
14901;DHT22;7542;49.078;9.194;2023-05-31T01:53:24;25.00;39.20
14901;DHT22;7542;49.078;9.194;2023-05-31T01:54:26;25.00;39.20
14901;DHT22;7542;49.078;9.194;2023-05-31T01:55:28;25.00;39.30
14901;DHT22;7542;49.078;9.194;2023-05-31T01:56:31;25.00;39.20
14901;DHT22;7542;49.078;9.194;2023-05-31T01:57:37;25.00;39.20
14901;DHT22;7542;49.078;9.194;2023-05-31T01:58:42;25.00;39.20
14901;DHT22;7542;49.078;9.194;2023-05-31T01:59:49;25.00;39.30
14901;DHT22;7542;49.078;9.194;2023-05-31T02:00:53;25.00;39.30
14901;DHT22;7542;49.078;9.194;2023-05-31T02:01:55;25.00;39.30
14901;DHT22;7542;49.078;9.194;2023-05-31T02:02:57;25.00;39.20
14901;DHT22;7542;49.078;9.194;2023-05-31T02:04:00;25.00;39.30
14901;DHT22;7542;49.078;9.194;2023-05-31T02:05:06;25.00;39.30
14901;DHT22;7542;49.078;9.194;2023-05-31T02:06:13;25.00;39.40
14901;DHT22;7542;49.078;9.194;2023-05-31T02:07:14;25.00;39.30
14901;DHT22;7542;49.078;9.194;2023-05-31T02:08:17;25.00;39.30
14901;DHT22;7542;49.078;9.194;2023-05-31T02:09:21;25.00;39.40
14901;DHT22;7542;49.078;9.194;2023-05-31T02:10:23;25.00;39.40
14901;DHT22;7542;49.078;9.194;2023-05-31T02:11:25;24.90;39.30
14901;DHT22;7542;49.078;9.194;2023-05-31T02:12:28;25.00;39.30
14901;DHT22;7542;49.078;9.194;2023-05-31T02:13:30;25.00;39.40
14901;DHT22;7542;49.078;9.194;2023-05-31T02:14:32;25.00;39.40
14901;DHT22;7542;49.078;9.194;2023-05-31T02:15:34;25.00;39.40
14901;DHT22;7542;49.078;9.194;2023-05-31T02:16:38;25.10;39.40
14901;DHT22;7542;49.078;9.194;2023-05-31T02:17:43;25.00;39.30
14901;DHT22;7542;49.078;9.194;2023-05-31T02:18:46;25.00;39.40
14901;DHT22;7542;49.078;9.194;2023-05-31T02:19:48;24.90;39.40
14901;DHT22;7542;49.078;9.194;2023-05-31T02:20:52;25.00;39.40
14901;DHT22;7542;49.078;9.194;2023-05-31T02:21:54;25.00;39.40
14901;DHT22;7542;49.078;9.194;2023-05-31T02:22:56;25.00;39.40
14901;DHT22;7542;49.078;9.194;2023-05-31T02:23:58;24.90;39.30
14901;DHT22;7542;49.078;9.194;2023-05-31T02:25:00;25.00;39.30
14901;DHT22;7542;49.078;9.194;2023-05-31T02:26:02;25.00;39.40
14901;DHT22;7542;49.078;9.194;2023-05-31T02:27:05;25.00;39.40
14901;DHT22;7542;49.078;9.194;2023-05-31T02:28:07;25.00;39.50
14901;DHT22;7542;49.078;9.194;2023-05-31T02:29:09;24.80;39.40
14901;DHT22;7542;49.078;9.194;2023-05-31T02:30:11;25.00;39.50
14901;DHT22;7542;49.078;9.194;2023-05-31T02:31:13;25.00;39.50
14901;DHT22;7542;49.078;9.194;2023-05-31T02:32:16;25.00;39.60
14901;DHT22;7542;49.078;9.194;2023-05-31T02:33:18;25.00;39.60
14901;DHT22;7542;49.078;9.194;2023-05-31T02:34:20;25.00;39.60
14901;DHT22;7542;49.078;9.194;2023-05-31T02:35:22;25.00;39.50
14901;DHT22;7542;49.078;9.194;2023-05-31T02:36:23;25.00;39.50
14901;DHT22;7542;49.078;9.194;2023-05-31T02:37:30;25.00;39.60
14901;DHT22;7542;49.078;9.194;2023-05-31T02:38:32;25.00;39.60
14901;DHT22;7542;49.078;9.194;2023-05-31T02:39:34;25.00;39.60
14901;DHT22;7542;49.078;9.194;2023-05-31T02:40:36;25.00;39.50
14901;DHT22;7542;49.078;9.194;2023-05-31T02:41:38;25.00;39.50
14901;DHT22;7542;49.078;9.194;2023-05-31T02:42:41;25.00;39.70
14901;DHT22;7542;49.078;9.194;2023-05-31T02:43:44;25.00;39.60
14901;DHT22;7542;49.078;9.194;2023-05-31T02:44:46;25.00;39.60
14901;DHT22;7542;49.078;9.194;2023-05-31T02:45:48;24.90;39.50
14901;DHT22;7542;49.078;9.194;2023-05-31T02:46:50;25.00;39.60
14901;DHT22;7542;49.078;9.194;2023-05-31T02:47:52;25.00;39.60
14901;DHT22;7542;49.078;9.194;2023-05-31T02:48:54;25.00;39.60
14901;DHT22;7542;49.078;9.194;2023-05-31T02:49:56;25.00;39.60
14901;DHT22;7542;49.078;9.194;2023-05-31T02:50:58;25.00;39.60
14901;DHT22;7542;49.078;9.194;2023-05-31T02:52:00;25.00;39.60
14901;DHT22;7542;49.078;9.194;2023-05-31T02:53:02;25.00;39.60
14901;DHT22;7542;49.078;9.194;2023-05-31T02:54:07;25.00;39.60
14901;DHT22;7542;49.078;9.194;2023-05-31T02:55:09;25.00;39.60
14901;DHT22;7542;49.078;9.194;2023-05-31T02:56:11;25.00;39.60
14901;DHT22;7542;49.078;9.194;2023-05-31T02:57:13;25.00;39.60
14901;DHT22;7542;49.078;9.194;2023-05-31T02:58:15;25.00;39.60
14901;DHT22;7542;49.078;9.194;2023-05-31T02:59:17;25.00;39.70
14901;DHT22;7542;49.078;9.194;2023-05-31T03:00:19;24.80;39.70
14901;DHT22;7542;49.078;9.194;2023-05-31T03:01:22;25.00;39.70
14901;DHT22;7542;49.078;9.194;2023-05-31T03:02:24;21.50;38.30
14901;DHT22;7542;49.078;9.194;2023-05-31T03:03:26;25.00;39.80
14901;DHT22;7542;49.078;9.194;2023-05-31T03:04:28;25.00;39.80
14901;DHT22;7542;49.078;9.194;2023-05-31T03:05:30;25.00;39.70
14901;DHT22;7542;49.078;9.194;2023-05-31T03:06:32;25.00;39.80
14901;DHT22;7542;49.078;9.194;2023-05-31T03:07:38;24.90;39.70
14901;DHT22;7542;49.078;9.194;2023-05-31T03:08:40;25.00;39.70
14901;DHT22;7542;49.078;9.194;2023-05-31T03:09:42;25.00;39.80
14901;DHT22;7542;49.078;9.194;2023-05-31T03:10:44;24.90;39.80
14901;DHT22;7542;49.078;9.194;2023-05-31T03:11:46;25.00;39.80
14901;DHT22;7542;49.078;9.194;2023-05-31T03:12:48;24.90;39.80
14901;DHT22;7542;49.078;9.194;2023-05-31T03:13:50;24.90;39.90
14901;DHT22;7542;49.078;9.194;2023-05-31T03:14:52;24.90;39.80
14901;DHT22;7542;49.078;9.194;2023-05-31T03:15:54;24.90;39.90
14901;DHT22;7542;49.078;9.194;2023-05-31T03:16:57;24.90;39.90
14901;DHT22;7542;49.078;9.194;2023-05-31T03:17:59;24.90;39.90
14901;DHT22;7542;49.078;9.194;2023-05-31T03:19:02;25.00;39.80
14901;DHT22;7542;49.078;9.194;2023-05-31T03:20:07;24.90;39.90
14901;DHT22;7542;49.078;9.194;2023-05-31T03:21:10;25.00;39.90
14901;DHT22;7542;49.078;9.194;2023-05-31T03:22:13;24.90;39.90
14901;DHT22;7542;49.078;9.194;2023-05-31T03:23:15;24.90;39.90
14901;DHT22;7542;49.078;9.194;2023-05-31T03:24:17;25.00;39.80
14901;DHT22;7542;49.078;9.194;2023-05-31T03:25:19;24.90;40.00
14901;DHT22;7542;49.078;9.194;2023-05-31T03:26:22;24.80;39.90
14901;DHT22;7542;49.078;9.194;2023-05-31T03:27:24;24.90;40.00
14901;DHT22;7542;49.078;9.194;2023-05-31T03:28:26;24.90;40.00
14901;DHT22;7542;49.078;9.194;2023-05-31T03:29:27;30.00;42.50
14901;DHT22;7542;49.078;9.194;2023-05-31T03:30:30;24.90;40.00
14901;DHT22;7542;49.078;9.194;2023-05-31T03:31:32;24.90;40.00
14901;DHT22;7542;49.078;9.194;2023-05-31T03:32:34;24.90;40.10
14901;DHT22;7542;49.078;9.194;2023-05-31T03:33:38;24.80;40.00
14901;DHT22;7542;49.078;9.194;2023-05-31T03:34:40;24.90;40.10
14901;DHT22;7542;49.078;9.194;2023-05-31T03:35:42;24.90;40.10
14901;DHT22;7542;49.078;9.194;2023-05-31T03:36:44;24.90;40.10
14901;DHT22;7542;49.078;9.194;2023-05-31T03:37:46;24.90;40.00
14901;DHT22;7542;49.078;9.194;2023-05-31T03:38:48;24.90;40.20
14901;DHT22;7542;49.078;9.194;2023-05-31T03:39:50;24.90;40.20
14901;DHT22;7542;49.078;9.194;2023-05-31T03:40:52;24.90;40.10
14901;DHT22;7542;49.078;9.194;2023-05-31T03:41:54;24.80;40.10
14901;DHT22;7542;49.078;9.194;2023-05-31T03:42:56;24.90;40.10
14901;DHT22;7542;49.078;9.194;2023-05-31T03:43:58;24.80;40.10
14901;DHT22;7542;49.078;9.194;2023-05-31T03:45:00;24.90;40.20
14901;DHT22;7542;49.078;9.194;2023-05-31T03:46:03;24.90;40.20
14901;DHT22;7542;49.078;9.194;2023-05-31T03:47:05;24.90;40.20
14901;DHT22;7542;49.078;9.194;2023-05-31T03:48:08;24.80;40.30
14901;DHT22;7542;49.078;9.194;2023-05-31T03:49:10;24.90;40.30
14901;DHT22;7542;49.078;9.194;2023-05-31T03:50:12;24.90;40.20
14901;DHT22;7542;49.078;9.194;2023-05-31T03:51:14;24.90;40.40
14901;DHT22;7542;49.078;9.194;2023-05-31T03:52:16;24.80;40.20
14901;DHT22;7542;49.078;9.194;2023-05-31T03:53:18;24.80;40.30
14901;DHT22;7542;49.078;9.194;2023-05-31T03:54:20;24.90;40.30
14901;DHT22;7542;49.078;9.194;2023-05-31T03:55:22;24.90;40.20
14901;DHT22;7542;49.078;9.194;2023-05-31T03:56:26;24.90;40.40
14901;DHT22;7542;49.078;9.194;2023-05-31T03:57:28;24.90;40.20
14901;DHT22;7542;49.078;9.194;2023-05-31T03:58:30;24.90;40.30
14901;DHT22;7542;49.078;9.194;2023-05-31T03:59:34;24.90;40.40
14901;DHT22;7542;49.078;9.194;2023-05-31T04:00:36;24.90;40.40
14901;DHT22;7542;49.078;9.194;2023-05-31T04:01:38;24.90;40.40
14901;DHT22;7542;49.078;9.194;2023-05-31T04:02:40;24.90;40.40
14901;DHT22;7542;49.078;9.194;2023-05-31T04:03:56;24.90;40.50
14901;DHT22;7542;49.078;9.194;2023-05-31T04:04:59;24.90;40.40
14901;DHT22;7542;49.078;9.194;2023-05-31T04:06:01;24.90;40.40
14901;DHT22;7542;49.078;9.194;2023-05-31T04:07:03;24.90;40.40
14901;DHT22;7542;49.078;9.194;2023-05-31T04:08:05;24.90;40.40
14901;DHT22;7542;49.078;9.194;2023-05-31T04:09:07;24.80;40.40
14901;DHT22;7542;49.078;9.194;2023-05-31T04:10:09;24.90;40.50
14901;DHT22;7542;49.078;9.194;2023-05-31T04:11:11;24.90;40.50
14901;DHT22;7542;49.078;9.194;2023-05-31T04:12:14;24.90;40.50
14901;DHT22;7542;49.078;9.194;2023-05-31T04:13:16;24.80;40.40
14901;DHT22;7542;49.078;9.194;2023-05-31T04:14:18;24.90;40.40
14901;DHT22;7542;49.078;9.194;2023-05-31T04:15:20;25.00;40.50
14901;DHT22;7542;49.078;9.194;2023-05-31T04:16:22;24.90;40.50
14901;DHT22;7542;49.078;9.194;2023-05-31T04:17:27;24.90;40.50
14901;DHT22;7542;49.078;9.194;2023-05-31T04:18:29;24.80;40.40
14901;DHT22;7542;49.078;9.194;2023-05-31T04:19:31;24.90;40.50
14901;DHT22;7542;49.078;9.194;2023-05-31T04:20:33;24.90;40.50
14901;DHT22;7542;49.078;9.194;2023-05-31T04:21:35;24.90;40.50
14901;DHT22;7542;49.078;9.194;2023-05-31T04:22:37;24.90;40.50
14901;DHT22;7542;49.078;9.194;2023-05-31T04:23:39;25.00;40.50
14901;DHT22;7542;49.078;9.194;2023-05-31T04:24:41;24.90;40.50
14901;DHT22;7542;49.078;9.194;2023-05-31T04:25:43;24.90;40.40
14901;DHT22;7542;49.078;9.194;2023-05-31T04:26:46;24.90;40.40
14901;DHT22;7542;49.078;9.194;2023-05-31T04:27:48;24.90;40.40
14901;DHT22;7542;49.078;9.194;2023-05-31T04:28:51;24.90;40.50
14901;DHT22;7542;49.078;9.194;2023-05-31T04:29:56;24.90;40.50
14901;DHT22;7542;49.078;9.194;2023-05-31T04:30:59;24.90;40.50
14901;DHT22;7542;49.078;9.194;2023-05-31T04:32:03;24.90;40.50
14901;DHT22;7542;49.078;9.194;2023-05-31T04:33:05;24.90;40.50
14901;DHT22;7542;49.078;9.194;2023-05-31T04:34:07;25.00;40.50
14901;DHT22;7542;49.078;9.194;2023-05-31T04:35:09;25.00;40.50
14901;DHT22;7542;49.078;9.194;2023-05-31T04:36:13;25.00;40.50
14901;DHT22;7542;49.078;9.194;2023-05-31T04:37:15;25.00;40.50
14901;DHT22;7542;49.078;9.194;2023-05-31T04:38:17;25.00;40.40
14901;DHT22;7542;49.078;9.194;2023-05-31T04:39:19;24.90;40.50
14901;DHT22;7542;49.078;9.194;2023-05-31T04:40:24;25.00;40.40
14901;DHT22;7542;49.078;9.194;2023-05-31T04:41:26;25.00;40.50
14901;DHT22;7542;49.078;9.194;2023-05-31T04:42:30;25.00;40.50
14901;DHT22;7542;49.078;9.194;2023-05-31T04:43:32;25.00;40.50
14901;DHT22;7542;49.078;9.194;2023-05-31T04:44:34;25.00;40.50
14901;DHT22;7542;49.078;9.194;2023-05-31T04:45:36;25.00;40.50
14901;DHT22;7542;49.078;9.194;2023-05-31T04:46:38;25.00;40.40
14901;DHT22;7542;49.078;9.194;2023-05-31T04:47:42;25.00;40.50
14901;DHT22;7542;49.078;9.194;2023-05-31T04:48:47;25.00;40.50
14901;DHT22;7542;49.078;9.194;2023-05-31T04:49:51;25.00;40.50
14901;DHT22;7542;49.078;9.194;2023-05-31T04:50:56;25.00;40.50
14901;DHT22;7542;49.078;9.194;2023-05-31T04:51:58;25.00;40.40
14901;DHT22;7542;49.078;9.194;2023-05-31T04:53:01;25.00;40.50
14901;DHT22;7542;49.078;9.194;2023-05-31T04:54:04;25.00;40.40
14901;DHT22;7542;49.078;9.194;2023-05-31T04:55:08;25.00;40.40
14901;DHT22;7542;49.078;9.194;2023-05-31T04:56:10;25.00;40.40
14901;DHT22;7542;49.078;9.194;2023-05-31T04:57:14;25.00;40.40
14901;DHT22;7542;49.078;9.194;2023-05-31T04:58:16;25.00;40.50
14901;DHT22;7542;49.078;9.194;2023-05-31T04:59:18;24.90;40.50
14901;DHT22;7542;49.078;9.194;2023-05-31T05:00:20;25.00;40.40
14901;DHT22;7542;49.078;9.194;2023-05-31T05:01:22;24.90;40.50
14901;DHT22;7542;49.078;9.194;2023-05-31T05:02:24;24.90;40.50
14901;DHT22;7542;49.078;9.194;2023-05-31T05:03:28;25.00;40.50
14901;DHT22;7542;49.078;9.194;2023-05-31T05:04:30;25.00;40.50
14901;DHT22;7542;49.078;9.194;2023-05-31T05:05:32;25.00;40.40
14901;DHT22;7542;49.078;9.194;2023-05-31T05:06:34;25.00;40.50
14901;DHT22;7542;49.078;9.194;2023-05-31T05:07:39;25.00;40.50
14901;DHT22;7542;49.078;9.194;2023-05-31T05:08:41;25.00;40.50
14901;DHT22;7542;49.078;9.194;2023-05-31T05:09:44;25.00;40.50
14901;DHT22;7542;49.078;9.194;2023-05-31T05:10:46;25.00;40.50
14901;DHT22;7542;49.078;9.194;2023-05-31T05:11:49;25.00;40.50
14901;DHT22;7542;49.078;9.194;2023-05-31T05:12:51;25.10;40.50
14901;DHT22;7542;49.078;9.194;2023-05-31T05:13:53;25.00;40.50
14901;DHT22;7542;49.078;9.194;2023-05-31T05:14:55;25.10;40.50
14901;DHT22;7542;49.078;9.194;2023-05-31T05:15:57;25.00;40.50
14901;DHT22;7542;49.078;9.194;2023-05-31T05:16:59;25.00;40.50
14901;DHT22;7542;49.078;9.194;2023-05-31T05:18:02;25.00;40.50
14901;DHT22;7542;49.078;9.194;2023-05-31T05:19:04;25.00;40.50
14901;DHT22;7542;49.078;9.194;2023-05-31T05:20:06;25.00;40.50
14901;DHT22;7542;49.078;9.194;2023-05-31T05:21:12;25.00;40.50
14901;DHT22;7542;49.078;9.194;2023-05-31T05:22:14;25.10;40.40
14901;DHT22;7542;49.078;9.194;2023-05-31T05:23:16;25.10;40.50
14901;DHT22;7542;49.078;9.194;2023-05-31T05:24:18;25.00;40.50
14901;DHT22;7542;49.078;9.194;2023-05-31T05:25:20;25.00;40.50
14901;DHT22;7542;49.078;9.194;2023-05-31T05:26:24;25.10;40.50
14901;DHT22;7542;49.078;9.194;2023-05-31T05:27:25;25.00;40.50
14901;DHT22;7542;49.078;9.194;2023-05-31T05:28:28;25.10;40.50
14901;DHT22;7542;49.078;9.194;2023-05-31T05:29:30;25.10;40.50
14901;DHT22;7542;49.078;9.194;2023-05-31T05:30:32;25.10;40.50
14901;DHT22;7542;49.078;9.194;2023-05-31T05:31:34;25.00;40.50
14901;DHT22;7542;49.078;9.194;2023-05-31T05:32:36;25.00;40.50
14901;DHT22;7542;49.078;9.194;2023-05-31T05:33:38;25.10;40.50
14901;DHT22;7542;49.078;9.194;2023-05-31T05:34:40;25.10;40.50
14901;DHT22;7542;49.078;9.194;2023-05-31T05:35:42;25.20;40.50
14901;DHT22;7542;49.078;9.194;2023-05-31T05:36:44;25.10;40.50
14901;DHT22;7542;49.078;9.194;2023-05-31T05:37:46;25.10;40.50
14901;DHT22;7542;49.078;9.194;2023-05-31T05:38:48;25.10;40.50
14901;DHT22;7542;49.078;9.194;2023-05-31T05:39:50;25.20;40.50
14901;DHT22;7542;49.078;9.194;2023-05-31T05:40:52;25.10;40.50
14901;DHT22;7542;49.078;9.194;2023-05-31T05:41:54;25.10;40.50
14901;DHT22;7542;49.078;9.194;2023-05-31T05:42:56;25.10;40.50
14901;DHT22;7542;49.078;9.194;2023-05-31T05:43:58;25.10;40.50
14901;DHT22;7542;49.078;9.194;2023-05-31T05:45:00;25.10;40.50
14901;DHT22;7542;49.078;9.194;2023-05-31T05:46:02;25.10;40.50
14901;DHT22;7542;49.078;9.194;2023-05-31T05:47:04;25.10;40.50
14901;DHT22;7542;49.078;9.194;2023-05-31T05:48:07;25.10;40.50
14901;DHT22;7542;49.078;9.194;2023-05-31T05:49:09;25.10;40.50
14901;DHT22;7542;49.078;9.194;2023-05-31T05:50:12;25.10;40.50
14901;DHT22;7542;49.078;9.194;2023-05-31T05:51:14;25.10;40.50
14901;DHT22;7542;49.078;9.194;2023-05-31T05:52:16;25.10;40.50
14901;DHT22;7542;49.078;9.194;2023-05-31T05:53:18;25.10;40.40
14901;DHT22;7542;49.078;9.194;2023-05-31T05:54:20;25.10;40.50
14901;DHT22;7542;49.078;9.194;2023-05-31T05:55:22;25.20;40.50
14901;DHT22;7542;49.078;9.194;2023-05-31T05:56:24;25.10;40.50
14901;DHT22;7542;49.078;9.194;2023-05-31T05:57:26;25.10;40.50
14901;DHT22;7542;49.078;9.194;2023-05-31T05:58:28;25.10;40.50
14901;DHT22;7542;49.078;9.194;2023-05-31T05:59:30;25.20;40.50
14901;DHT22;7542;49.078;9.194;2023-05-31T06:00:32;25.20;40.50
14901;DHT22;7542;49.078;9.194;2023-05-31T06:01:34;25.20;40.50
14901;DHT22;7542;49.078;9.194;2023-05-31T06:02:38;25.20;40.50
14901;DHT22;7542;49.078;9.194;2023-05-31T06:03:40;25.20;40.50
14901;DHT22;7542;49.078;9.194;2023-05-31T06:04:42;25.20;40.50
14901;DHT22;7542;49.078;9.194;2023-05-31T06:05:44;25.20;40.50
14901;DHT22;7542;49.078;9.194;2023-05-31T06:06:46;25.30;40.50
14901;DHT22;7542;49.078;9.194;2023-05-31T06:07:48;25.30;40.50
14901;DHT22;7542;49.078;9.194;2023-05-31T06:08:50;25.20;40.30
14901;DHT22;7542;49.078;9.194;2023-05-31T06:09:52;25.20;39.90
14901;DHT22;7542;49.078;9.194;2023-05-31T06:10:54;25.20;39.80
14901;DHT22;7542;49.078;9.194;2023-05-31T06:11:56;25.10;39.60
14901;DHT22;7542;49.078;9.194;2023-05-31T06:12:58;25.10;39.70
14901;DHT22;7542;49.078;9.194;2023-05-31T06:14:00;25.10;39.80
14901;DHT22;7542;49.078;9.194;2023-05-31T06:15:02;25.10;39.70
14901;DHT22;7542;49.078;9.194;2023-05-31T06:16:04;25.00;39.70
14901;DHT22;7542;49.078;9.194;2023-05-31T06:17:07;25.00;39.70
14901;DHT22;7542;49.078;9.194;2023-05-31T06:18:09;25.00;39.60
14901;DHT22;7542;49.078;9.194;2023-05-31T06:19:11;25.00;39.70
14901;DHT22;7542;49.078;9.194;2023-05-31T06:20:14;24.90;39.70
14901;DHT22;7542;49.078;9.194;2023-05-31T06:21:17;24.90;39.80
14901;DHT22;7542;49.078;9.194;2023-05-31T06:22:19;24.90;39.80
14901;DHT22;7542;49.078;9.194;2023-05-31T06:23:21;24.90;40.10
14901;DHT22;7542;49.078;9.194;2023-05-31T06:24:23;24.90;40.30
14901;DHT22;7542;49.078;9.194;2023-05-31T06:25:25;24.90;40.20
14901;DHT22;7542;49.078;9.194;2023-05-31T06:26:28;24.80;40.00
14901;DHT22;7542;49.078;9.194;2023-05-31T06:27:30;24.90;40.00
14901;DHT22;7542;49.078;9.194;2023-05-31T06:28:32;24.80;40.20
14901;DHT22;7542;49.078;9.194;2023-05-31T06:29:38;24.80;40.20
14901;DHT22;7542;49.078;9.194;2023-05-31T06:30:40;24.70;40.10
14901;DHT22;7542;49.078;9.194;2023-05-31T06:31:43;24.80;40.10
14901;DHT22;7542;49.078;9.194;2023-05-31T06:32:45;24.80;40.10
14901;DHT22;7542;49.078;9.194;2023-05-31T06:33:47;24.80;40.10
14901;DHT22;7542;49.078;9.194;2023-05-31T06:34:50;24.80;40.30
14901;DHT22;7542;49.078;9.194;2023-05-31T06:35:52;24.80;40.20
14901;DHT22;7542;49.078;9.194;2023-05-31T06:36:54;24.80;40.40
14901;DHT22;7542;49.078;9.194;2023-05-31T06:37:57;24.80;40.40
14901;DHT22;7542;49.078;9.194;2023-05-31T06:38:59;24.70;40.40
14901;DHT22;7542;49.078;9.194;2023-05-31T06:40:01;24.80;40.40
14901;DHT22;7542;49.078;9.194;2023-05-31T06:41:04;24.80;40.40
14901;DHT22;7542;49.078;9.194;2023-05-31T06:42:07;24.80;40.40
14901;DHT22;7542;49.078;9.194;2023-05-31T06:43:09;24.80;40.40
14901;DHT22;7542;49.078;9.194;2023-05-31T06:44:12;24.80;40.40
14901;DHT22;7542;49.078;9.194;2023-05-31T06:45:14;24.80;40.40
14901;DHT22;7542;49.078;9.194;2023-05-31T06:46:16;24.80;40.40
14901;DHT22;7542;49.078;9.194;2023-05-31T06:47:18;24.80;40.40
14901;DHT22;7542;49.078;9.194;2023-05-31T06:48:20;24.80;40.40
14901;DHT22;7542;49.078;9.194;2023-05-31T06:49:22;24.80;40.40
14901;DHT22;7542;49.078;9.194;2023-05-31T06:50:24;24.80;40.20